createdAt,value
2018-06-04T00:00:38.087Z,17.47
2018-06-04T00:03:06.716Z,19.63
2018-06-04T00:05:35.229Z,21.17
2018-06-04T00:08:03.754Z,18.30
2018-06-04T00:10:32.444Z,20.67
2018-06-04T00:13:01.062Z,18.83
2018-06-04T00:15:30.216Z,20.30
2018-06-04T00:17:58.905Z,20.40
2018-06-04T00:20:27.559Z,20.10
2018-06-04T00:22:56.241Z,22.00
2018-06-04T00:25:24.811Z,21.90
2018-06-04T00:27:53.409Z,20.37
2018-06-04T00:30:21.997Z,18.87
2018-06-04T00:32:50.616Z,21.77
2018-06-04T00:35:19.097Z,18.40
2018-06-04T00:37:47.709Z,20.77
2018-06-04T00:40:16.223Z,21.97
2018-06-04T00:42:45.005Z,20.73
2018-06-04T00:45:13.551Z,20.07
2018-06-04T00:47:42.133Z,23.47
2018-06-04T00:50:10.705Z,20.97
2018-06-04T00:52:39.302Z,24.40
2018-06-04T00:55:08.081Z,21.60
2018-06-04T00:57:36.606Z,22.47
2018-06-04T01:00:05.062Z,21.47
2018-06-04T01:02:33.693Z,26.03
2018-06-04T01:05:02.266Z,20.67
2018-06-04T01:07:30.912Z,23.93
2018-06-04T01:09:59.687Z,21.90
2018-06-04T01:12:28.204Z,22.50
2018-06-04T01:14:56.739Z,21.67
2018-06-04T01:17:25.350Z,23.00
2018-06-04T01:19:53.932Z,20.50
2018-06-04T01:22:22.563Z,24.17
2018-06-04T01:24:51.249Z,22.50
2018-06-04T01:27:19.779Z,25.60
2018-06-04T01:29:48.349Z,22.87
2018-06-04T01:32:16.925Z,23.23
2018-06-04T01:34:45.752Z,22.63
2018-06-04T01:37:14.294Z,24.27
2018-06-04T01:39:42.907Z,20.60
2018-06-04T01:42:11.531Z,22.80
2018-06-04T01:44:40.062Z,20.40
2018-06-04T01:47:08.604Z,23.47
2018-06-04T01:49:37.171Z,26.60
2018-06-04T01:52:05.804Z,24.00
2018-06-04T01:54:34.298Z,25.50
2018-06-04T01:57:02.860Z,22.67
2018-06-04T01:59:31.335Z,27.60
2018-06-04T02:01:59.905Z,25.27
2018-06-04T02:04:28.440Z,23.67
2018-06-04T02:06:56.959Z,24.20
2018-06-04T02:09:25.429Z,23.90
2018-06-04T02:11:53.960Z,24.43
2018-06-04T02:14:22.492Z,28.10
2018-06-04T02:16:51.132Z,26.40
2018-06-04T02:19:19.775Z,24.13
2018-06-04T02:21:48.306Z,24.93
2018-06-04T02:24:16.936Z,23.73
2018-06-04T02:26:45.457Z,22.70
2018-06-04T02:29:14.147Z,26.10
2018-06-04T02:31:42.732Z,28.13
2018-06-04T02:34:11.835Z,24.20
2018-06-04T02:36:40.413Z,28.67
2018-06-04T02:39:09.021Z,26.20
2018-06-04T02:41:37.554Z,28.00
2018-06-04T02:44:06.170Z,25.87
2018-06-04T02:46:34.855Z,25.63
2018-06-04T02:49:03.421Z,27.50
2018-06-04T02:51:31.960Z,26.33
2018-06-04T02:54:00.537Z,24.97
2018-06-04T02:56:29.063Z,22.77
2018-06-04T02:58:57.623Z,25.10
2018-06-04T03:01:26.202Z,26.73
2018-06-04T03:03:55.140Z,27.17
2018-06-04T03:06:23.676Z,27.23
2018-06-04T03:08:52.324Z,27.30
2018-06-04T03:11:20.902Z,27.43
2018-06-04T03:13:50.306Z,30.87
2018-06-04T03:16:18.855Z,27.07
2018-06-04T03:18:47.447Z,26.03
2018-06-04T03:21:16.129Z,24.33
2018-06-04T03:23:44.648Z,27.47
2018-06-04T03:26:14.102Z,26.57
2018-06-04T03:28:42.597Z,34.03
2018-06-04T03:31:11.060Z,27.73
2018-06-04T03:33:39.726Z,31.33
2018-06-04T03:36:08.213Z,30.47
2018-06-04T03:38:36.701Z,31.07
2018-06-04T03:41:05.349Z,26.00
2018-06-04T03:43:33.893Z,23.03
2018-06-04T03:46:02.402Z,25.30
2018-06-04T03:48:31.004Z,26.07
2018-06-04T03:50:59.565Z,24.00
2018-06-04T03:53:28.244Z,24.60
2018-06-04T03:55:56.846Z,25.13
2018-06-04T03:58:25.438Z,27.60
2018-06-04T04:00:53.942Z,23.17
2018-06-04T04:03:22.422Z,25.93
2018-06-04T04:05:50.939Z,26.03
2018-06-04T04:08:19.463Z,28.10
2018-06-04T04:10:48.014Z,28.83
2018-06-04T04:13:16.539Z,31.40
2018-06-04T04:15:45.103Z,29.77
2018-06-04T04:18:13.626Z,28.83
2018-06-04T04:20:42.221Z,27.13
2018-06-04T04:23:10.851Z,27.37
2018-06-04T04:25:39.372Z,29.73
2018-06-04T04:28:07.896Z,30.47
2018-06-04T04:30:36.427Z,28.23
2018-06-04T04:33:04.900Z,31.77
2018-06-04T04:35:33.489Z,28.77
2018-06-04T04:38:02.055Z,27.63
2018-06-04T04:40:30.665Z,30.90
2018-06-04T04:42:59.196Z,30.40
2018-06-04T04:45:27.740Z,25.27
2018-06-04T04:47:56.231Z,28.87
2018-06-04T04:50:24.849Z,29.07
2018-06-04T04:52:53.473Z,29.07
2018-06-04T04:55:22.303Z,27.33
2018-06-04T04:57:50.861Z,28.13
2018-06-04T05:00:19.406Z,30.50
2018-06-04T05:02:47.923Z,27.77
2018-06-04T05:05:16.655Z,28.87
2018-06-04T05:07:45.167Z,28.80
2018-06-04T05:10:13.833Z,29.63
2018-06-04T05:12:42.355Z,27.97
2018-06-04T05:15:11.018Z,32.27
2018-06-04T05:17:39.925Z,30.03
2018-06-04T05:20:09.474Z,34.23
2018-06-04T05:22:38.396Z,34.43
2018-06-04T05:25:07.166Z,29.40
2018-06-04T05:27:36.490Z,32.47
2018-06-04T05:30:05.217Z,33.97
2018-06-04T05:32:33.937Z,33.83
2018-06-04T05:35:02.604Z,33.07
2018-06-04T05:37:31.263Z,30.33
2018-06-04T05:40:00.630Z,34.63
2018-06-04T05:42:29.372Z,29.70
2018-06-04T05:44:58.083Z,31.07
2018-06-04T05:47:27.151Z,29.27
2018-06-04T05:49:55.956Z,29.17
2018-06-04T05:52:25.848Z,31.43
2018-06-04T05:54:54.824Z,27.67
2018-06-04T05:57:23.785Z,31.90
2018-06-04T05:59:52.424Z,30.97
2018-06-04T06:02:21.400Z,28.40
2018-06-04T06:04:50.025Z,27.40
2018-06-04T06:07:18.878Z,22.80
2018-06-04T06:09:47.636Z,26.27
2018-06-04T06:12:16.595Z,27.40
2018-06-04T06:14:45.119Z,27.37
2018-06-04T06:17:13.711Z,27.27
2018-06-04T06:19:42.631Z,27.97
2018-06-04T06:22:12.884Z,26.50
2018-06-04T06:24:41.488Z,24.67
2018-06-04T06:27:11.453Z,23.67
2018-06-04T06:29:40.504Z,26.90
2018-06-04T06:32:09.148Z,22.67
2018-06-04T06:34:37.764Z,21.87
2018-06-04T06:37:06.536Z,22.87
2018-06-04T06:39:35.246Z,21.07
2018-06-04T06:42:03.907Z,23.83
2018-06-04T06:44:32.636Z,22.67
2018-06-04T06:47:01.299Z,22.27
2018-06-04T06:49:30.634Z,21.80
2018-06-04T06:51:59.797Z,22.10
2018-06-04T06:54:28.923Z,21.57
2018-06-04T06:56:57.774Z,24.60
2018-06-04T06:59:26.671Z,20.37
2018-06-04T07:01:55.904Z,19.33
2018-06-04T07:04:25.358Z,18.43
2018-06-04T07:06:54.055Z,19.13
2018-06-04T07:09:22.730Z,16.80
2018-06-04T07:11:51.340Z,15.07
2018-06-04T07:14:20.029Z,16.33
2018-06-04T07:16:48.692Z,15.37
2018-06-04T07:19:17.181Z,14.77
2018-06-04T07:21:45.848Z,15.03
2018-06-04T07:24:14.529Z,14.10
2018-06-04T07:26:43.390Z,12.67
2018-06-04T07:29:12.173Z,12.33
2018-06-04T07:31:40.997Z,13.48
2018-06-04T07:34:09.683Z,15.25
2018-06-04T07:36:38.804Z,12.00
2018-06-04T07:39:08.918Z,12.28
2018-06-04T07:41:38.053Z,11.43
2018-06-04T07:44:06.979Z,12.47
2018-06-04T07:46:35.797Z,12.98
2018-06-04T07:49:04.926Z,16.52
2018-06-04T07:51:34.414Z,12.43
2018-06-04T07:54:03.063Z,8.95
2018-06-04T07:56:31.647Z,9.13
2018-06-04T07:59:00.213Z,10.50
2018-06-04T08:01:28.833Z,12.13
2018-06-04T08:04:03.766Z,9.80
2018-06-04T08:06:32.234Z,9.88
2018-06-04T08:09:00.690Z,8.75
2018-06-04T08:11:29.229Z,10.35
2018-06-04T08:13:57.717Z,10.85
2018-06-04T08:16:26.567Z,9.78
2018-06-04T08:18:55.106Z,9.20
2018-06-04T08:21:23.698Z,9.15
2018-06-04T08:23:52.265Z,9.05
2018-06-04T08:26:20.812Z,8.45
2018-06-04T08:28:49.346Z,7.62
2018-06-04T08:31:17.861Z,8.93
2018-06-04T08:33:46.396Z,8.95
2018-06-04T08:36:14.864Z,8.63
2018-06-04T08:38:43.440Z,7.62
2018-06-04T08:41:12.055Z,14.15
2018-06-04T08:43:40.567Z,13.30
2018-06-04T08:46:09.037Z,8.68
2018-06-04T08:48:37.575Z,14.60
2018-06-04T08:51:06.124Z,5.95
2018-06-04T08:53:34.628Z,9.63
2018-06-04T08:56:03.183Z,7.90
2018-06-04T08:58:31.728Z,12.35
2018-06-04T09:01:00.184Z,8.38
2018-06-04T09:03:28.788Z,8.55
2018-06-04T09:05:57.636Z,9.43
2018-06-04T09:08:26.276Z,9.40
2018-06-04T09:10:54.749Z,25.32
2018-06-04T09:13:23.247Z,7.87
2018-06-04T09:15:52.037Z,8.80
2018-06-04T09:18:20.734Z,19.82
2018-06-04T09:20:49.490Z,13.83
2018-06-04T09:23:18.019Z,7.30
2018-06-04T09:25:46.635Z,54.48
2018-06-04T09:28:15.166Z,14.95
2018-06-04T09:30:43.622Z,8.65
2018-06-04T09:33:12.869Z,14.60
2018-06-04T09:35:41.620Z,9.68
2018-06-04T09:38:11.174Z,6.75
2018-06-04T09:40:40.141Z,12.35
2018-06-04T09:43:08.970Z,16.62
2018-06-04T09:45:37.938Z,8.55
2018-06-04T09:48:06.733Z,7.10
2018-06-04T09:50:35.429Z,7.37
2018-06-04T09:53:04.366Z,7.87
2018-06-04T09:55:33.477Z,7.75
2018-06-04T09:58:02.285Z,8.88
2018-06-04T10:00:35.072Z,9.35
2018-06-04T10:03:04.868Z,10.10
2018-06-04T10:05:33.569Z,17.55
2018-06-04T10:08:02.277Z,8.53
2018-06-04T10:10:30.957Z,9.43
2018-06-04T10:12:59.626Z,12.05
2018-06-04T10:15:28.474Z,10.25
2018-06-04T10:17:57.361Z,9.18
2018-06-04T10:20:26.125Z,8.98
2018-06-04T10:22:54.828Z,8.50
2018-06-04T10:25:23.552Z,8.30
2018-06-04T10:27:52.201Z,8.53
2018-06-04T10:30:21.277Z,8.83
2018-06-04T10:32:50.172Z,9.70
2018-06-04T10:35:21.007Z,22.70
2018-06-04T10:37:49.813Z,8.50
2018-06-04T10:40:19.123Z,10.78
2018-06-04T10:42:47.800Z,13.53
2018-06-04T10:45:16.659Z,16.02
2018-06-04T10:47:46.005Z,16.62
2018-06-04T10:50:14.879Z,9.53
2018-06-04T10:52:43.712Z,21.75
2018-06-04T10:55:12.839Z,10.40
2018-06-04T10:57:41.632Z,8.00
2018-06-04T11:00:10.532Z,8.38
2018-06-04T11:02:39.733Z,9.75
2018-06-04T11:05:09.261Z,8.68
2018-06-04T11:07:37.984Z,12.25
2018-06-04T11:10:06.940Z,11.88
2018-06-04T11:12:35.860Z,18.00
2018-06-04T11:15:04.484Z,29.12
2018-06-04T11:17:33.125Z,11.38
2018-06-04T11:20:02.021Z,14.45
2018-06-04T11:22:30.789Z,26.20
2018-06-04T11:24:59.699Z,10.40
2018-06-04T11:27:28.620Z,10.90
2018-06-04T11:29:59.664Z,9.65
2018-06-04T11:32:28.571Z,9.30
2018-06-04T11:34:58.491Z,10.45
2018-06-04T11:37:27.573Z,9.05
2018-06-04T11:39:56.370Z,8.70
2018-06-04T11:42:25.358Z,9.48
2018-06-04T11:44:53.975Z,9.33
2018-06-04T11:47:22.810Z,9.25
2018-06-04T11:49:51.598Z,8.38
2018-06-04T11:52:20.805Z,8.58
2018-06-04T11:54:49.877Z,9.30
2018-06-04T11:57:18.802Z,8.68
2018-06-04T11:59:47.797Z,8.23
2018-06-04T12:02:16.591Z,8.73
2018-06-04T12:04:45.427Z,8.93
2018-06-04T12:07:14.150Z,10.05
2018-06-04T12:09:42.733Z,10.15
2018-06-04T12:12:11.676Z,10.35
2018-06-04T12:14:40.414Z,10.00
2018-06-04T12:17:09.305Z,10.35
2018-06-04T12:19:38.214Z,9.05
2018-06-04T12:22:07.000Z,9.75
2018-06-04T12:24:35.759Z,10.40
2018-06-04T12:27:04.556Z,11.97
2018-06-04T12:29:33.255Z,11.48
2018-06-04T12:32:02.049Z,10.72
2018-06-04T12:34:31.161Z,11.40
2018-06-04T12:37:01.477Z,11.55
2018-06-04T12:39:30.487Z,12.90
2018-06-04T12:41:59.445Z,14.17
2018-06-04T12:44:28.220Z,13.33
2018-06-04T12:46:57.116Z,12.57
2018-06-04T12:49:26.111Z,13.77
2018-06-04T12:51:55.001Z,16.13
2018-06-04T12:54:24.403Z,15.87
2018-06-04T12:56:53.398Z,62.17
2018-06-04T12:59:22.316Z,114.53
2018-06-04T13:01:51.497Z,11.53
2018-06-04T13:04:20.509Z,14.30
2018-06-04T13:06:49.706Z,14.00
2018-06-04T13:09:18.934Z,14.17
2018-06-04T13:11:47.792Z,17.43
2018-06-04T13:14:16.550Z,16.70
2018-06-04T13:16:45.620Z,16.13
2018-06-04T13:19:14.552Z,15.70
2018-06-04T13:21:43.488Z,15.97
2018-06-04T13:24:12.340Z,18.87
2018-06-04T13:26:41.324Z,16.33
2018-06-04T13:29:10.307Z,17.23
2018-06-04T13:31:39.233Z,18.83
2018-06-04T13:34:08.840Z,17.90
2018-06-04T13:36:37.799Z,16.77
2018-06-04T13:39:09.047Z,18.00
2018-06-04T13:41:37.960Z,17.20
2018-06-04T13:44:06.746Z,17.40
2018-06-04T13:46:35.644Z,17.87
2018-06-04T13:49:04.407Z,18.13
2018-06-04T13:51:33.428Z,19.07
2018-06-04T13:54:03.054Z,19.43
2018-06-04T13:56:32.007Z,20.40
2018-06-04T13:59:01.155Z,19.03
2018-06-04T14:01:29.925Z,21.67
2018-06-04T14:03:58.879Z,19.70
2018-06-04T14:06:27.792Z,19.53
2018-06-04T14:08:57.169Z,20.80
2018-06-04T14:11:25.986Z,19.27
2018-06-04T14:13:54.780Z,20.67
2018-06-04T14:16:23.796Z,20.93
2018-06-04T14:18:52.629Z,18.93
2018-06-04T14:21:21.604Z,18.40
2018-06-04T14:23:51.224Z,19.20
2018-06-04T14:26:20.189Z,18.87
2018-06-04T14:28:49.207Z,21.13
2018-06-04T14:31:18.640Z,17.90
2018-06-04T14:33:47.510Z,20.10
2018-06-04T14:36:16.355Z,18.37
2018-06-04T14:38:45.223Z,18.80
2018-06-04T14:41:14.296Z,19.63
2018-06-04T14:43:43.145Z,18.47
2018-06-04T14:46:12.328Z,19.27
2018-06-04T14:48:41.080Z,17.83
2018-06-04T14:51:09.873Z,20.13
2018-06-04T14:53:38.737Z,18.93
2018-06-04T14:56:07.500Z,18.00
2018-06-04T14:58:41.768Z,18.07
2018-06-04T15:01:10.597Z,19.43
2018-06-04T15:03:39.519Z,20.03
2018-06-04T15:06:09.023Z,18.33
2018-06-04T15:08:37.943Z,19.63
2018-06-04T15:11:06.723Z,22.30
2018-06-04T15:13:35.508Z,20.20
2018-06-04T15:16:04.335Z,19.70
2018-06-04T15:18:33.094Z,18.13
2018-06-04T15:21:01.916Z,20.87
2018-06-04T15:23:30.875Z,20.07
2018-06-04T15:26:00.753Z,22.97
2018-06-04T15:28:29.520Z,21.87
2018-06-04T15:30:58.416Z,21.53
2018-06-04T15:33:28.368Z,21.37
2018-06-04T15:35:57.543Z,22.17
2018-06-04T15:38:26.607Z,19.97
2018-06-04T15:40:55.561Z,20.10
2018-06-04T15:43:25.527Z,23.50
2018-06-04T15:45:54.486Z,19.77
2018-06-04T15:48:26.879Z,20.43
2018-06-04T15:50:56.507Z,22.13
2018-06-04T15:53:32.682Z,19.90
2018-06-04T15:56:03.122Z,20.93
2018-06-04T15:58:35.134Z,20.90
2018-06-04T16:03:42.726Z,21.33
2018-06-04T16:06:12.924Z,21.47
2018-06-04T16:08:42.879Z,23.30
2018-06-04T16:11:13.456Z,21.20
2018-06-04T16:13:42.406Z,22.07
2018-06-04T16:16:11.281Z,21.00
2018-06-04T16:18:40.285Z,23.67
2018-06-04T16:21:09.212Z,22.53
2018-06-04T16:23:37.875Z,23.43
2018-06-04T16:26:06.662Z,20.17
2018-06-04T16:28:36.824Z,21.30
2018-06-04T16:31:05.602Z,23.43
2018-06-04T16:33:37.717Z,25.93
2018-06-04T16:36:06.524Z,22.53
2018-06-04T16:38:35.180Z,21.23
2018-06-04T16:41:03.791Z,22.67
2018-06-04T16:43:32.503Z,24.37
2018-06-04T16:46:01.266Z,23.93
2018-06-04T16:48:29.903Z,23.27
2018-06-04T16:50:58.509Z,25.73
2018-06-04T16:53:27.372Z,23.40
2018-06-04T16:55:56.059Z,24.57
2018-06-04T16:58:24.862Z,23.73
2018-06-04T17:00:53.553Z,23.00
2018-06-04T17:03:22.356Z,22.97
2018-06-04T17:05:51.099Z,22.10
2018-06-04T17:08:19.753Z,21.77
2018-06-04T17:10:48.472Z,21.40
2018-06-04T17:13:17.181Z,23.87
2018-06-04T17:15:45.862Z,19.47
2018-06-04T17:18:14.572Z,20.93
2018-06-04T17:20:43.325Z,20.53
2018-06-04T17:23:11.994Z,20.40
2018-06-04T17:25:40.776Z,20.67
2018-06-04T17:28:09.584Z,19.37
2018-06-04T17:30:38.291Z,20.03
2018-06-04T17:33:06.945Z,21.30
2018-06-04T17:35:35.681Z,21.53
2018-06-04T17:38:04.425Z,25.37
2018-06-04T17:40:33.075Z,20.57
2018-06-04T17:43:01.837Z,25.87
2018-06-04T17:45:30.401Z,23.97
2018-06-04T17:47:59.003Z,32.67
2018-06-04T17:50:27.872Z,27.43
2018-06-04T17:52:58.220Z,20.43
2018-06-04T17:55:27.259Z,19.80
2018-06-04T17:57:57.145Z,19.13
2018-06-04T18:00:26.176Z,25.20
2018-06-04T18:02:55.124Z,19.77
2018-06-04T18:05:24.101Z,20.00
2018-06-04T18:07:52.995Z,21.37
2018-06-04T18:10:22.854Z,21.70
2018-06-04T18:12:51.831Z,19.17
2018-06-04T18:15:20.696Z,18.37
2018-06-04T18:17:49.659Z,20.27
2018-06-04T18:20:18.526Z,18.27
2018-06-04T18:22:47.987Z,19.00
2018-06-04T18:25:17.111Z,18.23
2018-06-04T18:27:46.272Z,17.57
2018-06-04T18:30:15.615Z,18.30
2018-06-04T18:32:45.086Z,19.03
2018-06-04T18:35:14.001Z,21.90
2018-06-04T18:37:42.935Z,18.43
2018-06-04T18:40:11.960Z,18.10
2018-06-04T18:42:41.309Z,19.37
2018-06-04T18:45:10.859Z,17.33
2018-06-04T18:47:39.936Z,16.90
2018-06-04T18:50:09.108Z,19.40
2018-06-04T18:52:37.774Z,17.97
2018-06-04T18:55:11.726Z,20.10
2018-06-04T18:57:40.695Z,19.37
2018-06-04T19:00:09.318Z,17.93
2018-06-04T19:02:38.028Z,19.80
2018-06-04T19:05:07.072Z,19.47
2018-06-04T19:07:35.891Z,17.00
2018-06-04T19:10:04.582Z,19.77
2018-06-04T19:12:33.220Z,18.27
2018-06-04T19:15:01.933Z,17.53
2018-06-04T19:17:30.635Z,17.40
2018-06-04T19:19:59.422Z,17.20
2018-06-04T19:22:28.107Z,19.00
2018-06-04T19:24:56.956Z,16.80
2018-06-04T19:27:25.652Z,17.93
2018-06-04T19:29:54.488Z,17.70
2018-06-04T19:32:23.284Z,16.70
2018-06-04T19:34:52.055Z,16.60
2018-06-04T19:37:20.795Z,16.83
2018-06-04T19:39:49.614Z,17.27
2018-06-04T19:42:18.331Z,16.23
2018-06-04T19:44:47.775Z,18.50
2018-06-04T19:47:16.568Z,16.80
2018-06-04T19:49:45.283Z,15.57
2018-06-04T19:52:13.832Z,16.57
2018-06-04T19:54:42.671Z,17.27
2018-06-04T19:57:11.380Z,17.60
2018-06-04T19:59:40.073Z,16.03
2018-06-04T20:02:08.669Z,16.50
2018-06-04T20:04:37.335Z,20.03
2018-06-04T20:07:06.151Z,16.70
2018-06-04T20:09:34.876Z,16.77
2018-06-04T20:12:03.522Z,17.70
2018-06-04T20:14:32.547Z,15.83
2018-06-04T20:17:01.236Z,16.03
2018-06-04T20:19:29.919Z,18.23
2018-06-04T20:21:58.737Z,17.70
2018-06-04T20:24:27.533Z,16.73
2018-06-04T20:26:56.201Z,18.10
2018-06-04T20:29:24.751Z,18.13
2018-06-04T20:31:53.299Z,16.93
2018-06-04T20:34:21.942Z,18.87
2018-06-04T20:36:50.664Z,18.50
2018-06-04T20:39:19.449Z,16.67
2018-06-04T20:41:48.084Z,17.90
2018-06-04T20:44:17.021Z,17.50
2018-06-04T20:46:46.183Z,18.27
2018-06-04T20:49:14.788Z,17.10
2018-06-04T20:51:43.425Z,19.17
2018-06-04T20:54:12.073Z,19.30
2018-06-04T20:56:41.103Z,18.63
2018-06-04T20:59:09.744Z,20.13
2018-06-04T21:01:38.376Z,20.13
2018-06-04T21:04:07.048Z,21.53
2018-06-04T21:06:35.653Z,20.37
2018-06-04T21:09:06.319Z,19.13
2018-06-04T21:11:34.899Z,22.13
2018-06-04T21:14:04.284Z,21.23
2018-06-04T21:16:33.093Z,19.53
2018-06-04T21:19:02.473Z,21.60
2018-06-04T21:21:31.544Z,22.10
2018-06-04T21:24:00.512Z,20.73
2018-06-04T21:26:29.484Z,18.90
2018-06-04T21:28:58.132Z,20.80
2018-06-04T21:31:26.719Z,21.57
2018-06-04T21:33:55.321Z,21.60
2018-06-04T21:36:23.893Z,20.30
2018-06-04T21:38:52.645Z,20.97
2018-06-04T21:41:21.212Z,22.30
2018-06-04T21:43:49.812Z,19.83
2018-06-04T21:46:18.422Z,20.67
2018-06-04T21:48:48.689Z,18.67
2018-06-04T21:51:17.257Z,22.43
2018-06-04T21:53:45.799Z,20.50
2018-06-04T21:56:14.220Z,23.40
2018-06-04T21:58:43.204Z,21.00
2018-06-04T22:01:11.867Z,20.33
2018-06-04T22:03:40.474Z,23.57
2018-06-04T22:06:09.074Z,23.20
2018-06-04T22:08:37.674Z,21.93
2018-06-04T22:11:06.303Z,24.13
2018-06-04T22:13:34.893Z,21.63
2018-06-04T22:16:03.421Z,20.13
2018-06-04T22:18:31.982Z,22.33
2018-06-04T22:21:00.673Z,22.87
2018-06-04T22:23:29.239Z,23.03
2018-06-04T22:25:57.845Z,21.93
2018-06-04T22:28:26.491Z,20.60
2018-06-04T22:30:54.993Z,24.10
2018-06-04T22:33:23.598Z,23.23
2018-06-04T22:35:52.200Z,22.03
2018-06-04T22:38:20.750Z,21.60
2018-06-04T22:40:49.362Z,21.80
2018-06-04T22:43:17.988Z,22.63
2018-06-04T22:45:46.579Z,23.47
2018-06-04T22:48:15.277Z,21.07
2018-06-04T22:50:44.147Z,22.83
2018-06-04T22:53:12.696Z,21.53
2018-06-04T22:55:41.325Z,20.97
2018-06-04T22:58:09.903Z,22.80
2018-06-04T23:00:38.385Z,22.97
2018-06-04T23:03:07.285Z,22.53
2018-06-04T23:05:35.776Z,24.97
2018-06-04T23:08:04.454Z,23.07
2018-06-04T23:10:33.068Z,23.70
2018-06-04T23:13:01.708Z,23.53
2018-06-04T23:15:30.232Z,25.53
2018-06-04T23:17:58.764Z,21.00
2018-06-04T23:20:27.550Z,20.97
2018-06-04T23:22:56.105Z,21.90
2018-06-04T23:25:24.756Z,23.33
2018-06-04T23:27:53.337Z,21.60
2018-06-04T23:30:21.922Z,24.07
2018-06-04T23:32:50.451Z,23.37
2018-06-04T23:35:19.060Z,25.57
2018-06-04T23:37:47.615Z,27.50
2018-06-04T23:40:16.134Z,27.90
2018-06-04T23:42:44.732Z,29.83
2018-06-04T23:45:13.342Z,28.87
2018-06-04T23:47:41.858Z,28.10
2018-06-04T23:50:10.491Z,30.13
2018-06-04T23:52:39.125Z,31.07
2018-06-04T23:55:08.514Z,37.60
2018-06-04T23:57:37.002Z,38.63
